sensor_id;sensor_type;location;lat;lon;timestamp;P1;durP1;ratioP1;P2;durP2;ratioP2
17864;SDS011;9058;52.018;4.202;2022-08-07T00:00:36;4.90;;;4.50;;
17864;SDS011;9058;52.018;4.202;2022-08-07T00:03:03;5.70;;;4.55;;
17864;SDS011;9058;52.018;4.202;2022-08-07T00:05:29;5.43;;;4.55;;
17864;SDS011;9058;52.018;4.202;2022-08-07T00:07:56;5.10;;;4.60;;
17864;SDS011;9058;52.018;4.202;2022-08-07T00:10:24;5.65;;;5.15;;
17864;SDS011;9058;52.018;4.202;2022-08-07T00:12:50;5.47;;;4.95;;
17864;SDS011;9058;52.018;4.202;2022-08-07T00:15:16;5.78;;;5.18;;
17864;SDS011;9058;52.018;4.202;2022-08-07T00:17:43;6.35;;;4.47;;
17864;SDS011;9058;52.018;4.202;2022-08-07T00:20:09;6.10;;;4.80;;
17864;SDS011;9058;52.018;4.202;2022-08-07T00:22:35;5.78;;;4.63;;
17864;SDS011;9058;52.018;4.202;2022-08-07T00:25:03;5.35;;;4.68;;
17864;SDS011;9058;52.018;4.202;2022-08-07T00:27:31;5.65;;;4.55;;
17864;SDS011;9058;52.018;4.202;2022-08-07T00:29:57;5.00;;;4.55;;
17864;SDS011;9058;52.018;4.202;2022-08-07T00:32:23;6.35;;;4.68;;
17864;SDS011;9058;52.018;4.202;2022-08-07T00:34:50;5.43;;;4.93;;
17864;SDS011;9058;52.018;4.202;2022-08-07T00:37:16;4.90;;;4.40;;
17864;SDS011;9058;52.018;4.202;2022-08-07T00:39:43;5.30;;;4.32;;
17864;SDS011;9058;52.018;4.202;2022-08-07T00:42:09;5.45;;;4.95;;
17864;SDS011;9058;52.018;4.202;2022-08-07T00:44:37;5.93;;;5.32;;
17864;SDS011;9058;52.018;4.202;2022-08-07T00:47:04;7.82;;;6.18;;
17864;SDS011;9058;52.018;4.202;2022-08-07T00:49:30;6.45;;;5.85;;
17864;SDS011;9058;52.018;4.202;2022-08-07T00:51:57;7.28;;;6.57;;
17864;SDS011;9058;52.018;4.202;2022-08-07T00:54:23;8.50;;;6.50;;
17864;SDS011;9058;52.018;4.202;2022-08-07T00:56:50;6.68;;;6.07;;
17864;SDS011;9058;52.018;4.202;2022-08-07T00:59:17;7.13;;;6.40;;
17864;SDS011;9058;52.018;4.202;2022-08-07T01:01:46;7.13;;;6.28;;
17864;SDS011;9058;52.018;4.202;2022-08-07T01:04:15;8.52;;;6.03;;
17864;SDS011;9058;52.018;4.202;2022-08-07T01:06:41;7.53;;;6.30;;
17864;SDS011;9058;52.018;4.202;2022-08-07T01:09:09;7.78;;;6.03;;
17864;SDS011;9058;52.018;4.202;2022-08-07T01:11:39;10.50;;;6.78;;
17864;SDS011;9058;52.018;4.202;2022-08-07T01:14:06;8.30;;;6.20;;
17864;SDS011;9058;52.018;4.202;2022-08-07T01:16:33;6.28;;;5.68;;
17864;SDS011;9058;52.018;4.202;2022-08-07T01:19:02;7.75;;;6.53;;
17864;SDS011;9058;52.018;4.202;2022-08-07T01:21:29;8.00;;;5.55;;
17864;SDS011;9058;52.018;4.202;2022-08-07T01:23:57;6.38;;;5.40;;
17864;SDS011;9058;52.018;4.202;2022-08-07T01:26:26;10.07;;;5.95;;
17864;SDS011;9058;52.018;4.202;2022-08-07T01:28:52;7.45;;;5.50;;
17864;SDS011;9058;52.018;4.202;2022-08-07T01:31:19;7.00;;;6.30;;
17864;SDS011;9058;52.018;4.202;2022-08-07T01:33:52;7.70;;;6.20;;
17864;SDS011;9058;52.018;4.202;2022-08-07T01:36:18;7.03;;;6.38;;
17864;SDS011;9058;52.018;4.202;2022-08-07T01:38:47;8.02;;;6.32;;
17864;SDS011;9058;52.018;4.202;2022-08-07T01:41:13;6.55;;;5.78;;
17864;SDS011;9058;52.018;4.202;2022-08-07T01:43:42;8.65;;;5.90;;
17864;SDS011;9058;52.018;4.202;2022-08-07T01:46:09;7.38;;;6.60;;
17864;SDS011;9058;52.018;4.202;2022-08-07T01:48:35;6.70;;;6.10;;
17864;SDS011;9058;52.018;4.202;2022-08-07T01:51:04;7.97;;;7.28;;
17864;SDS011;9058;52.018;4.202;2022-08-07T01:53:33;8.75;;;7.80;;
17864;SDS011;9058;52.018;4.202;2022-08-07T01:56:02;10.02;;;8.13;;
17864;SDS011;9058;52.018;4.202;2022-08-07T01:58:31;7.50;;;6.80;;
17864;SDS011;9058;52.018;4.202;2022-08-07T02:01:00;9.57;;;6.95;;
17864;SDS011;9058;52.018;4.202;2022-08-07T02:03:27;8.65;;;7.85;;
17864;SDS011;9058;52.018;4.202;2022-08-07T02:05:56;8.57;;;7.63;;
17864;SDS011;9058;52.018;4.202;2022-08-07T02:08:24;8.65;;;7.72;;
17864;SDS011;9058;52.018;4.202;2022-08-07T02:10:51;8.50;;;7.70;;
17864;SDS011;9058;52.018;4.202;2022-08-07T02:13:22;7.82;;;6.85;;
17864;SDS011;9058;52.018;4.202;2022-08-07T02:15:50;9.55;;;7.15;;
17864;SDS011;9058;52.018;4.202;2022-08-07T02:18:17;8.48;;;7.65;;
17864;SDS011;9058;52.018;4.202;2022-08-07T02:20:44;8.27;;;7.38;;
17864;SDS011;9058;52.018;4.202;2022-08-07T02:23:12;8.25;;;7.45;;
17864;SDS011;9058;52.018;4.202;2022-08-07T02:25:39;8.43;;;7.63;;
17864;SDS011;9058;52.018;4.202;2022-08-07T02:28:06;8.60;;;7.80;;
17864;SDS011;9058;52.018;4.202;2022-08-07T02:30:35;8.13;;;7.32;;
17864;SDS011;9058;52.018;4.202;2022-08-07T02:33:01;7.65;;;6.95;;
17864;SDS011;9058;52.018;4.202;2022-08-07T02:35:31;8.70;;;6.82;;
17864;SDS011;9058;52.018;4.202;2022-08-07T02:37:58;7.38;;;6.70;;
17864;SDS011;9058;52.018;4.202;2022-08-07T02:40:25;9.02;;;7.43;;
17864;SDS011;9058;52.018;4.202;2022-08-07T02:42:52;8.70;;;7.60;;
17864;SDS011;9058;52.018;4.202;2022-08-07T02:45:19;10.95;;;9.02;;
17864;SDS011;9058;52.018;4.202;2022-08-07T02:47:48;9.70;;;8.80;;
17864;SDS011;9058;52.018;4.202;2022-08-07T02:50:15;10.23;;;8.57;;
17864;SDS011;9058;52.018;4.202;2022-08-07T02:52:42;9.73;;;8.85;;
17864;SDS011;9058;52.018;4.202;2022-08-07T02:55:11;11.77;;;8.80;;
17864;SDS011;9058;52.018;4.202;2022-08-07T02:57:39;12.75;;;9.95;;
17864;SDS011;9058;52.018;4.202;2022-08-07T03:00:05;11.40;;;9.50;;
17864;SDS011;9058;52.018;4.202;2022-08-07T03:02:32;14.23;;;9.60;;
17864;SDS011;9058;52.018;4.202;2022-08-07T03:05:03;10.60;;;9.48;;
17864;SDS011;9058;52.018;4.202;2022-08-07T03:07:29;12.50;;;9.73;;
17864;SDS011;9058;52.018;4.202;2022-08-07T03:09:56;11.68;;;9.10;;
17864;SDS011;9058;52.018;4.202;2022-08-07T03:12:24;14.07;;;10.02;;
17864;SDS011;9058;52.018;4.202;2022-08-07T03:14:50;11.65;;;10.02;;
17864;SDS011;9058;52.018;4.202;2022-08-07T03:17:17;10.50;;;9.43;;
17864;SDS011;9058;52.018;4.202;2022-08-07T03:19:44;11.18;;;9.98;;
17864;SDS011;9058;52.018;4.202;2022-08-07T03:22:13;11.60;;;10.02;;
17864;SDS011;9058;52.018;4.202;2022-08-07T03:24:41;11.27;;;10.02;;
17864;SDS011;9058;52.018;4.202;2022-08-07T03:27:07;13.32;;;10.98;;
17864;SDS011;9058;52.018;4.202;2022-08-07T03:29:36;11.02;;;9.93;;
17864;SDS011;9058;52.018;4.202;2022-08-07T03:32:04;11.70;;;9.68;;
17864;SDS011;9058;52.018;4.202;2022-08-07T03:34:31;10.75;;;9.65;;
17864;SDS011;9058;52.018;4.202;2022-08-07T03:36:58;10.80;;;9.65;;
17864;SDS011;9058;52.018;4.202;2022-08-07T03:39:28;10.27;;;9.27;;
17864;SDS011;9058;52.018;4.202;2022-08-07T03:41:55;12.63;;;9.70;;
17864;SDS011;9058;52.018;4.202;2022-08-07T03:44:21;10.88;;;9.77;;
17864;SDS011;9058;52.018;4.202;2022-08-07T03:46:47;11.43;;;9.52;;
17864;SDS011;9058;52.018;4.202;2022-08-07T03:49:15;12.20;;;10.13;;
17864;SDS011;9058;52.018;4.202;2022-08-07T03:51:42;13.98;;;10.70;;
17864;SDS011;9058;52.018;4.202;2022-08-07T03:54:08;10.63;;;9.15;;
17864;SDS011;9058;52.018;4.202;2022-08-07T03:56:36;12.43;;;9.15;;
17864;SDS011;9058;52.018;4.202;2022-08-07T03:59:04;11.57;;;9.90;;
17864;SDS011;9058;52.018;4.202;2022-08-07T04:01:31;11.60;;;8.23;;
17864;SDS011;9058;52.018;4.202;2022-08-07T04:03:57;11.88;;;8.75;;
17864;SDS011;9058;52.018;4.202;2022-08-07T04:06:23;12.40;;;8.75;;
17864;SDS011;9058;52.018;4.202;2022-08-07T04:08:50;14.57;;;9.93;;
17864;SDS011;9058;52.018;4.202;2022-08-07T04:11:16;16.15;;;8.60;;
17864;SDS011;9058;52.018;4.202;2022-08-07T04:13:44;13.20;;;8.85;;
17864;SDS011;9058;52.018;4.202;2022-08-07T04:16:11;10.45;;;8.30;;
17864;SDS011;9058;52.018;4.202;2022-08-07T04:18:38;13.60;;;10.30;;
17864;SDS011;9058;52.018;4.202;2022-08-07T04:21:04;14.60;;;11.02;;
17864;SDS011;9058;52.018;4.202;2022-08-07T04:23:31;15.60;;;11.35;;
17864;SDS011;9058;52.018;4.202;2022-08-07T04:25:57;15.02;;;10.77;;
17864;SDS011;9058;52.018;4.202;2022-08-07T04:28:24;10.95;;;9.73;;
17864;SDS011;9058;52.018;4.202;2022-08-07T04:30:52;15.80;;;10.35;;
17864;SDS011;9058;52.018;4.202;2022-08-07T04:33:18;17.65;;;10.25;;
17864;SDS011;9058;52.018;4.202;2022-08-07T04:35:44;12.93;;;9.65;;
17864;SDS011;9058;52.018;4.202;2022-08-07T04:38:11;12.00;;;9.90;;
17864;SDS011;9058;52.018;4.202;2022-08-07T04:40:38;14.00;;;10.57;;
17864;SDS011;9058;52.018;4.202;2022-08-07T04:43:05;14.63;;;10.68;;
17864;SDS011;9058;52.018;4.202;2022-08-07T04:45:33;15.63;;;11.40;;
17864;SDS011;9058;52.018;4.202;2022-08-07T04:48:05;15.25;;;11.25;;
17864;SDS011;9058;52.018;4.202;2022-08-07T04:50:33;15.75;;;12.23;;
17864;SDS011;9058;52.018;4.202;2022-08-07T04:53:03;19.67;;;12.40;;
17864;SDS011;9058;52.018;4.202;2022-08-07T04:55:34;15.65;;;11.48;;
17864;SDS011;9058;52.018;4.202;2022-08-07T04:58:03;17.27;;;11.98;;
17864;SDS011;9058;52.018;4.202;2022-08-07T05:00:35;15.98;;;12.45;;
17864;SDS011;9058;52.018;4.202;2022-08-07T05:03:12;16.15;;;12.85;;
17864;SDS011;9058;52.018;4.202;2022-08-07T05:05:42;16.50;;;12.63;;
17864;SDS011;9058;52.018;4.202;2022-08-07T05:08:11;17.33;;;13.32;;
17864;SDS011;9058;52.018;4.202;2022-08-07T05:10:40;16.92;;;12.60;;
17864;SDS011;9058;52.018;4.202;2022-08-07T05:13:08;18.50;;;13.75;;
17864;SDS011;9058;52.018;4.202;2022-08-07T05:15:37;20.10;;;15.35;;
17864;SDS011;9058;52.018;4.202;2022-08-07T05:18:08;16.55;;;14.52;;
17864;SDS011;9058;52.018;4.202;2022-08-07T05:20:38;20.27;;;14.68;;
17864;SDS011;9058;52.018;4.202;2022-08-07T05:23:07;14.23;;;12.63;;
17864;SDS011;9058;52.018;4.202;2022-08-07T05:25:35;14.35;;;11.10;;
17864;SDS011;9058;52.018;4.202;2022-08-07T05:28:02;10.77;;;9.65;;
17864;SDS011;9058;52.018;4.202;2022-08-07T05:30:29;11.55;;;8.80;;
17864;SDS011;9058;52.018;4.202;2022-08-07T05:32:55;10.30;;;7.70;;
17864;SDS011;9058;52.018;4.202;2022-08-07T05:35:25;8.30;;;6.82;;
17864;SDS011;9058;52.018;4.202;2022-08-07T05:37:52;7.18;;;6.47;;
17864;SDS011;9058;52.018;4.202;2022-08-07T05:40:18;8.05;;;6.45;;
17864;SDS011;9058;52.018;4.202;2022-08-07T05:42:45;9.35;;;6.10;;
17864;SDS011;9058;52.018;4.202;2022-08-07T05:45:12;7.15;;;5.32;;
17864;SDS011;9058;52.018;4.202;2022-08-07T05:47:38;7.20;;;5.65;;
17864;SDS011;9058;52.018;4.202;2022-08-07T05:50:06;7.00;;;5.38;;
17864;SDS011;9058;52.018;4.202;2022-08-07T05:52:34;5.20;;;4.63;;
17864;SDS011;9058;52.018;4.202;2022-08-07T05:55:00;6.13;;;5.20;;
17864;SDS011;9058;52.018;4.202;2022-08-07T05:57:27;8.90;;;5.95;;
17864;SDS011;9058;52.018;4.202;2022-08-07T05:59:55;5.63;;;5.13;;
17864;SDS011;9058;52.018;4.202;2022-08-07T06:02:21;7.72;;;4.60;;
17864;SDS011;9058;52.018;4.202;2022-08-07T06:04:51;5.68;;;5.07;;
17864;SDS011;9058;52.018;4.202;2022-08-07T06:07:18;6.30;;;4.78;;
17864;SDS011;9058;52.018;4.202;2022-08-07T06:09:46;5.53;;;4.70;;
17864;SDS011;9058;52.018;4.202;2022-08-07T06:12:13;5.13;;;4.63;;
17864;SDS011;9058;52.018;4.202;2022-08-07T06:14:40;6.47;;;5.13;;
17864;SDS011;9058;52.018;4.202;2022-08-07T06:17:07;6.75;;;4.97;;
17864;SDS011;9058;52.018;4.202;2022-08-07T06:19:34;5.43;;;4.68;;
17864;SDS011;9058;52.018;4.202;2022-08-07T06:22:00;6.05;;;4.13;;
17864;SDS011;9058;52.018;4.202;2022-08-07T06:24:27;4.03;;;3.22;;
17864;SDS011;9058;52.018;4.202;2022-08-07T06:26:55;3.28;;;2.90;;
17864;SDS011;9058;52.018;4.202;2022-08-07T06:29:25;3.10;;;2.60;;
17864;SDS011;9058;52.018;4.202;2022-08-07T06:31:52;4.63;;;3.10;;
17864;SDS011;9058;52.018;4.202;2022-08-07T06:34:21;3.10;;;2.75;;
17864;SDS011;9058;52.018;4.202;2022-08-07T06:36:48;3.63;;;2.55;;
17864;SDS011;9058;52.018;4.202;2022-08-07T06:39:14;2.42;;;1.58;;
17864;SDS011;9058;52.018;4.202;2022-08-07T06:41:42;6.32;;;1.80;;
17864;SDS011;9058;52.018;4.202;2022-08-07T06:47:15;2.05;;;1.77;;
17864;SDS011;9058;52.018;4.202;2022-08-07T06:49:42;2.33;;;1.73;;
17864;SDS011;9058;52.018;4.202;2022-08-07T06:52:09;2.25;;;1.88;;
17864;SDS011;9058;52.018;4.202;2022-08-07T06:54:36;3.83;;;1.33;;
17864;SDS011;9058;52.018;4.202;2022-08-07T06:57:04;4.88;;;1.40;;
17864;SDS011;9058;52.018;4.202;2022-08-07T06:59:32;1.60;;;1.10;;
17864;SDS011;9058;52.018;4.202;2022-08-07T07:02:00;6.88;;;2.08;;
17864;SDS011;9058;52.018;4.202;2022-08-07T07:04:29;2.15;;;1.40;;
17864;SDS011;9058;52.018;4.202;2022-08-07T07:06:56;3.70;;;1.58;;
17864;SDS011;9058;52.018;4.202;2022-08-07T07:09:23;2.15;;;1.50;;
17864;SDS011;9058;52.018;4.202;2022-08-07T07:11:53;4.45;;;1.30;;
17864;SDS011;9058;52.018;4.202;2022-08-07T07:14:23;4.03;;;1.58;;
17864;SDS011;9058;52.018;4.202;2022-08-07T07:16:51;2.13;;;1.20;;
17864;SDS011;9058;52.018;4.202;2022-08-07T07:19:24;4.65;;;1.40;;
17864;SDS011;9058;52.018;4.202;2022-08-07T07:21:53;1.85;;;1.38;;
17864;SDS011;9058;52.018;4.202;2022-08-07T07:24:20;2.75;;;1.40;;
17864;SDS011;9058;52.018;4.202;2022-08-07T07:26:47;2.30;;;1.20;;
17864;SDS011;9058;52.018;4.202;2022-08-07T07:29:14;2.63;;;1.33;;
17864;SDS011;9058;52.018;4.202;2022-08-07T07:31:43;2.78;;;1.17;;
17864;SDS011;9058;52.018;4.202;2022-08-07T07:34:17;2.50;;;1.30;;
17864;SDS011;9058;52.018;4.202;2022-08-07T07:36:45;4.55;;;1.13;;
17864;SDS011;9058;52.018;4.202;2022-08-07T07:39:15;2.63;;;1.45;;
17864;SDS011;9058;52.018;4.202;2022-08-07T07:41:43;1.95;;;1.40;;
17864;SDS011;9058;52.018;4.202;2022-08-07T07:44:14;2.90;;;1.50;;
17864;SDS011;9058;52.018;4.202;2022-08-07T07:46:41;1.90;;;1.20;;
17864;SDS011;9058;52.018;4.202;2022-08-07T07:49:08;3.08;;;1.33;;
17864;SDS011;9058;52.018;4.202;2022-08-07T07:51:34;2.92;;;0.93;;
17864;SDS011;9058;52.018;4.202;2022-08-07T07:54:02;1.63;;;1.10;;
17864;SDS011;9058;52.018;4.202;2022-08-07T07:56:31;2.35;;;1.08;;
17864;SDS011;9058;52.018;4.202;2022-08-07T07:58:59;2.10;;;1.10;;
17864;SDS011;9058;52.018;4.202;2022-08-07T08:01:26;3.10;;;1.00;;
17864;SDS011;9058;52.018;4.202;2022-08-07T08:03:54;2.08;;;0.90;;
17864;SDS011;9058;52.018;4.202;2022-08-07T08:06:22;1.38;;;0.82;;
17864;SDS011;9058;52.018;4.202;2022-08-07T08:08:49;5.40;;;0.90;;
17864;SDS011;9058;52.018;4.202;2022-08-07T08:11:16;2.15;;;1.05;;
17864;SDS011;9058;52.018;4.202;2022-08-07T08:13:44;1.20;;;0.93;;
17864;SDS011;9058;52.018;4.202;2022-08-07T08:16:11;1.65;;;0.98;;
17864;SDS011;9058;52.018;4.202;2022-08-07T08:18:41;2.47;;;1.00;;
17864;SDS011;9058;52.018;4.202;2022-08-07T08:21:08;3.58;;;1.05;;
17864;SDS011;9058;52.018;4.202;2022-08-07T08:23:55;3.35;;;1.20;;
17864;SDS011;9058;52.018;4.202;2022-08-07T08:26:39;2.78;;;0.90;;
17864;SDS011;9058;52.018;4.202;2022-08-07T08:29:28;1.92;;;1.27;;
17864;SDS011;9058;52.018;4.202;2022-08-07T08:31:55;1.80;;;1.23;;
17864;SDS011;9058;52.018;4.202;2022-08-07T08:34:22;3.53;;;1.05;;
17864;SDS011;9058;52.018;4.202;2022-08-07T08:36:50;2.00;;;1.00;;
17864;SDS011;9058;52.018;4.202;2022-08-07T08:39:17;2.55;;;0.95;;
17864;SDS011;9058;52.018;4.202;2022-08-07T08:41:45;1.33;;;1.23;;
17864;SDS011;9058;52.018;4.202;2022-08-07T08:44:15;1.33;;;1.00;;
17864;SDS011;9058;52.018;4.202;2022-08-07T08:46:45;1.95;;;0.68;;
17864;SDS011;9058;52.018;4.202;2022-08-07T08:49:17;3.10;;;1.10;;
17864;SDS011;9058;52.018;4.202;2022-08-07T08:51:46;2.03;;;1.00;;
17864;SDS011;9058;52.018;4.202;2022-08-07T08:54:19;1.88;;;1.30;;
17864;SDS011;9058;52.018;4.202;2022-08-07T08:56:48;1.88;;;1.00;;
17864;SDS011;9058;52.018;4.202;2022-08-07T08:59:16;2.05;;;0.90;;
17864;SDS011;9058;52.018;4.202;2022-08-07T09:01:49;1.40;;;1.02;;
17864;SDS011;9058;52.018;4.202;2022-08-07T09:04:20;1.85;;;1.17;;
17864;SDS011;9058;52.018;4.202;2022-08-07T09:06:51;2.40;;;1.10;;
17864;SDS011;9058;52.018;4.202;2022-08-07T09:09:23;2.20;;;0.98;;
17864;SDS011;9058;52.018;4.202;2022-08-07T09:11:54;2.15;;;0.95;;
17864;SDS011;9058;52.018;4.202;2022-08-07T09:14:26;3.35;;;1.30;;
17864;SDS011;9058;52.018;4.202;2022-08-07T09:16:59;2.47;;;1.00;;
17864;SDS011;9058;52.018;4.202;2022-08-07T09:19:32;2.05;;;1.00;;
17864;SDS011;9058;52.018;4.202;2022-08-07T09:22:09;1.50;;;0.95;;
17864;SDS011;9058;52.018;4.202;2022-08-07T09:24:41;3.03;;;1.15;;
17864;SDS011;9058;52.018;4.202;2022-08-07T09:27:23;4.03;;;1.40;;
17864;SDS011;9058;52.018;4.202;2022-08-07T09:29:55;1.90;;;1.02;;
17864;SDS011;9058;52.018;4.202;2022-08-07T09:32:24;1.20;;;1.10;;
17864;SDS011;9058;52.018;4.202;2022-08-07T09:34:57;1.45;;;1.35;;
17864;SDS011;9058;52.018;4.202;2022-08-07T09:37:27;4.30;;;1.20;;
17864;SDS011;9058;52.018;4.202;2022-08-07T09:39:57;2.45;;;1.10;;
17864;SDS011;9058;52.018;4.202;2022-08-07T09:42:33;1.85;;;1.13;;
17864;SDS011;9058;52.018;4.202;2022-08-07T09:45:06;1.83;;;1.10;;
17864;SDS011;9058;52.018;4.202;2022-08-07T09:47:38;2.92;;;1.52;;
17864;SDS011;9058;52.018;4.202;2022-08-07T09:50:09;3.00;;;1.48;;
17864;SDS011;9058;52.018;4.202;2022-08-07T09:52:39;2.17;;;1.52;;
17864;SDS011;9058;52.018;4.202;2022-08-07T09:55:08;3.13;;;1.35;;
17864;SDS011;9058;52.018;4.202;2022-08-07T09:57:47;1.25;;;1.13;;
17864;SDS011;9058;52.018;4.202;2022-08-07T10:00:15;2.15;;;1.20;;
17864;SDS011;9058;52.018;4.202;2022-08-07T10:02:54;5.90;;;2.40;;
17864;SDS011;9058;52.018;4.202;2022-08-07T10:05:25;7.30;;;2.50;;
17864;SDS011;9058;52.018;4.202;2022-08-07T10:07:58;2.97;;;1.70;;
17864;SDS011;9058;52.018;4.202;2022-08-07T10:10:29;5.47;;;1.60;;
17864;SDS011;9058;52.018;4.202;2022-08-07T10:13:08;3.17;;;1.80;;
17864;SDS011;9058;52.018;4.202;2022-08-07T10:15:42;6.97;;;2.17;;
17864;SDS011;9058;52.018;4.202;2022-08-07T10:18:21;5.10;;;2.22;;
17864;SDS011;9058;52.018;4.202;2022-08-07T10:20:55;5.70;;;1.92;;
17864;SDS011;9058;52.018;4.202;2022-08-07T10:23:31;1.88;;;1.40;;
17864;SDS011;9058;52.018;4.202;2022-08-07T10:26:00;6.28;;;2.10;;
17864;SDS011;9058;52.018;4.202;2022-08-07T10:31:06;4.32;;;2.05;;
17864;SDS011;9058;52.018;4.202;2022-08-07T10:33:42;3.40;;;1.55;;
17864;SDS011;9058;52.018;4.202;2022-08-07T10:36:19;7.40;;;4.32;;
17864;SDS011;9058;52.018;4.202;2022-08-07T10:38:50;4.65;;;1.80;;
17864;SDS011;9058;52.018;4.202;2022-08-07T10:41:18;3.90;;;1.75;;
17864;SDS011;9058;52.018;4.202;2022-08-07T10:43:47;5.30;;;2.25;;
17864;SDS011;9058;52.018;4.202;2022-08-07T10:46:22;4.90;;;1.42;;
17864;SDS011;9058;52.018;4.202;2022-08-07T10:48:56;7.68;;;3.75;;
17864;SDS011;9058;52.018;4.202;2022-08-07T10:51:31;4.70;;;2.30;;
17864;SDS011;9058;52.018;4.202;2022-08-07T10:54:01;3.63;;;1.70;;
17864;SDS011;9058;52.018;4.202;2022-08-07T10:56:33;2.50;;;1.33;;
17864;SDS011;9058;52.018;4.202;2022-08-07T10:59:06;9.30;;;3.72;;
17864;SDS011;9058;52.018;4.202;2022-08-07T11:01:38;6.35;;;1.98;;
17864;SDS011;9058;52.018;4.202;2022-08-07T11:04:09;2.53;;;1.30;;
17864;SDS011;9058;52.018;4.202;2022-08-07T11:06:40;6.80;;;2.22;;
17864;SDS011;9058;52.018;4.202;2022-08-07T11:09:08;14.10;;;4.22;;
17864;SDS011;9058;52.018;4.202;2022-08-07T11:11:38;2.08;;;1.52;;
17864;SDS011;9058;52.018;4.202;2022-08-07T11:14:09;1.55;;;1.45;;
17864;SDS011;9058;52.018;4.202;2022-08-07T11:16:40;3.67;;;1.95;;
17864;SDS011;9058;52.018;4.202;2022-08-07T11:19:13;2.75;;;1.40;;
17864;SDS011;9058;52.018;4.202;2022-08-07T11:21:53;1.65;;;1.20;;
17864;SDS011;9058;52.018;4.202;2022-08-07T11:24:21;5.57;;;2.92;;
17864;SDS011;9058;52.018;4.202;2022-08-07T11:26:50;11.48;;;3.85;;
17864;SDS011;9058;52.018;4.202;2022-08-07T11:29:21;17.27;;;5.10;;
17864;SDS011;9058;52.018;4.202;2022-08-07T11:31:52;3.20;;;1.73;;
17864;SDS011;9058;52.018;4.202;2022-08-07T11:34:21;23.77;;;5.82;;
17864;SDS011;9058;52.018;4.202;2022-08-07T11:36:54;12.05;;;4.18;;
17864;SDS011;9058;52.018;4.202;2022-08-07T11:39:26;13.80;;;4.05;;
17864;SDS011;9058;52.018;4.202;2022-08-07T11:42:09;5.38;;;2.30;;
17864;SDS011;9058;52.018;4.202;2022-08-07T11:44:39;6.70;;;2.75;;
17864;SDS011;9058;52.018;4.202;2022-08-07T11:47:11;2.55;;;1.60;;
17864;SDS011;9058;52.018;4.202;2022-08-07T11:49:46;9.45;;;3.88;;
17864;SDS011;9058;52.018;4.202;2022-08-07T11:52:21;10.68;;;3.80;;
17864;SDS011;9058;52.018;4.202;2022-08-07T11:54:55;9.63;;;4.00;;
17864;SDS011;9058;52.018;4.202;2022-08-07T11:57:32;12.63;;;3.78;;
17864;SDS011;9058;52.018;4.202;2022-08-07T12:00:02;12.00;;;5.35;;
17864;SDS011;9058;52.018;4.202;2022-08-07T12:02:35;11.18;;;4.20;;
17864;SDS011;9058;52.018;4.202;2022-08-07T12:05:14;13.85;;;4.28;;
17864;SDS011;9058;52.018;4.202;2022-08-07T12:07:43;12.65;;;3.80;;
17864;SDS011;9058;52.018;4.202;2022-08-07T12:10:12;14.35;;;5.18;;
17864;SDS011;9058;52.018;4.202;2022-08-07T12:12:41;7.35;;;2.92;;
17864;SDS011;9058;52.018;4.202;2022-08-07T12:15:10;3.15;;;1.80;;
17864;SDS011;9058;52.018;4.202;2022-08-07T12:17:39;3.58;;;2.00;;
17864;SDS011;9058;52.018;4.202;2022-08-07T12:20:08;7.25;;;2.65;;
17864;SDS011;9058;52.018;4.202;2022-08-07T12:22:39;15.90;;;4.18;;
17864;SDS011;9058;52.018;4.202;2022-08-07T12:25:08;6.38;;;2.53;;
17864;SDS011;9058;52.018;4.202;2022-08-07T12:27:56;22.25;;;6.07;;
17864;SDS011;9058;52.018;4.202;2022-08-07T12:30:25;8.15;;;2.70;;
17864;SDS011;9058;52.018;4.202;2022-08-07T12:32:57;11.25;;;3.95;;
17864;SDS011;9058;52.018;4.202;2022-08-07T12:35:25;12.35;;;4.05;;
17864;SDS011;9058;52.018;4.202;2022-08-07T12:37:56;19.65;;;6.40;;
17864;SDS011;9058;52.018;4.202;2022-08-07T12:40:25;5.95;;;2.80;;
17864;SDS011;9058;52.018;4.202;2022-08-07T12:42:53;7.18;;;2.17;;
17864;SDS011;9058;52.018;4.202;2022-08-07T12:45:22;6.38;;;2.83;;
17864;SDS011;9058;52.018;4.202;2022-08-07T12:47:52;5.38;;;2.38;;
17864;SDS011;9058;52.018;4.202;2022-08-07T12:50:23;9.40;;;3.42;;
17864;SDS011;9058;52.018;4.202;2022-08-07T12:52:55;12.95;;;4.47;;
17864;SDS011;9058;52.018;4.202;2022-08-07T12:55:28;16.23;;;4.22;;
17864;SDS011;9058;52.018;4.202;2022-08-07T12:57:57;13.93;;;5.53;;
17864;SDS011;9058;52.018;4.202;2022-08-07T13:00:26;11.75;;;3.50;;
17864;SDS011;9058;52.018;4.202;2022-08-07T13:03:00;8.45;;;2.92;;
17864;SDS011;9058;52.018;4.202;2022-08-07T13:05:37;9.43;;;2.63;;
17864;SDS011;9058;52.018;4.202;2022-08-07T13:08:15;9.52;;;2.92;;
17864;SDS011;9058;52.018;4.202;2022-08-07T13:10:50;12.88;;;3.92;;
17864;SDS011;9058;52.018;4.202;2022-08-07T13:13:27;12.52;;;3.47;;
17864;SDS011;9058;52.018;4.202;2022-08-07T13:15:55;13.48;;;3.25;;
17864;SDS011;9058;52.018;4.202;2022-08-07T13:18:26;9.68;;;2.95;;
17864;SDS011;9058;52.018;4.202;2022-08-07T13:20:56;6.55;;;2.63;;
17864;SDS011;9058;52.018;4.202;2022-08-07T13:23:25;10.85;;;3.25;;
17864;SDS011;9058;52.018;4.202;2022-08-07T13:26:00;7.18;;;3.05;;
17864;SDS011;9058;52.018;4.202;2022-08-07T13:28:29;8.35;;;2.63;;
17864;SDS011;9058;52.018;4.202;2022-08-07T13:31:00;8.90;;;2.85;;
17864;SDS011;9058;52.018;4.202;2022-08-07T13:33:31;13.15;;;4.22;;
17864;SDS011;9058;52.018;4.202;2022-08-07T13:36:00;6.53;;;2.38;;
17864;SDS011;9058;52.018;4.202;2022-08-07T13:38:28;11.35;;;3.67;;
17864;SDS011;9058;52.018;4.202;2022-08-07T13:41:01;18.27;;;4.60;;
17864;SDS011;9058;52.018;4.202;2022-08-07T13:43:29;12.70;;;4.20;;
17864;SDS011;9058;52.018;4.202;2022-08-07T13:45:57;3.88;;;1.73;;
17864;SDS011;9058;52.018;4.202;2022-08-07T13:48:25;8.70;;;2.63;;
17864;SDS011;9058;52.018;4.202;2022-08-07T13:50:54;9.77;;;2.90;;
17864;SDS011;9058;52.018;4.202;2022-08-07T13:53:22;8.90;;;3.13;;
17864;SDS011;9058;52.018;4.202;2022-08-07T13:55:50;6.25;;;2.20;;
17864;SDS011;9058;52.018;4.202;2022-08-07T13:58:18;9.73;;;3.05;;
17864;SDS011;9058;52.018;4.202;2022-08-07T14:01:07;4.80;;;2.50;;
17864;SDS011;9058;52.018;4.202;2022-08-07T14:03:34;6.20;;;1.35;;
17864;SDS011;9058;52.018;4.202;2022-08-07T14:06:04;3.88;;;1.83;;
17864;SDS011;9058;52.018;4.202;2022-08-07T14:08:32;5.13;;;2.20;;
17864;SDS011;9058;52.018;4.202;2022-08-07T14:10:59;3.20;;;1.77;;
17864;SDS011;9058;52.018;4.202;2022-08-07T14:13:29;3.13;;;1.80;;
17864;SDS011;9058;52.018;4.202;2022-08-07T14:15:57;3.67;;;2.00;;
17864;SDS011;9058;52.018;4.202;2022-08-07T14:18:26;3.22;;;1.88;;
17864;SDS011;9058;52.018;4.202;2022-08-07T14:20:58;2.13;;;1.60;;
17864;SDS011;9058;52.018;4.202;2022-08-07T14:23:28;2.75;;;1.95;;
17864;SDS011;9058;52.018;4.202;2022-08-07T14:25:57;2.67;;;1.42;;
17864;SDS011;9058;52.018;4.202;2022-08-07T14:28:24;4.38;;;2.00;;
17864;SDS011;9058;52.018;4.202;2022-08-07T14:30:52;3.00;;;2.03;;
17864;SDS011;9058;52.018;4.202;2022-08-07T14:33:21;4.45;;;2.00;;
17864;SDS011;9058;52.018;4.202;2022-08-07T14:35:52;4.20;;;2.25;;
17864;SDS011;9058;52.018;4.202;2022-08-07T14:38:22;6.90;;;1.92;;
17864;SDS011;9058;52.018;4.202;2022-08-07T14:40:52;3.05;;;2.17;;
17864;SDS011;9058;52.018;4.202;2022-08-07T14:43:19;3.53;;;2.10;;
17864;SDS011;9058;52.018;4.202;2022-08-07T14:45:47;3.63;;;2.05;;
17864;SDS011;9058;52.018;4.202;2022-08-07T14:48:16;6.90;;;2.10;;
17864;SDS011;9058;52.018;4.202;2022-08-07T14:50:46;3.72;;;1.98;;
17864;SDS011;9058;52.018;4.202;2022-08-07T14:53:13;3.58;;;1.90;;
17864;SDS011;9058;52.018;4.202;2022-08-07T14:55:41;3.70;;;2.20;;
17864;SDS011;9058;52.018;4.202;2022-08-07T14:58:08;2.75;;;1.80;;
17864;SDS011;9058;52.018;4.202;2022-08-07T15:00:36;2.08;;;1.80;;
17864;SDS011;9058;52.018;4.202;2022-08-07T15:03:05;3.22;;;2.22;;
17864;SDS011;9058;52.018;4.202;2022-08-07T15:05:33;4.55;;;2.15;;
17864;SDS011;9058;52.018;4.202;2022-08-07T15:08:02;2.75;;;2.25;;
17864;SDS011;9058;52.018;4.202;2022-08-07T15:13:32;2.47;;;1.55;;
17864;SDS011;9058;52.018;4.202;2022-08-07T15:16:02;13.88;;;2.05;;